sensor_id;sensor_type;location;lat;lon;timestamp;pressure;altitude;pressure_sealevel;temperature;humidity
31761;BME280;18335;51.486;7.562;2022-08-03T00:01:22;100201.06;;;20.33;100.00
31761;BME280;18335;51.486;7.562;2022-08-03T00:03:49;100197.03;;;20.47;100.00
31761;BME280;18335;51.486;7.562;2022-08-03T00:06:17;100194.34;;;20.40;100.00
31761;BME280;18335;51.486;7.562;2022-08-03T00:08:44;100201.78;;;20.22;100.00
31761;BME280;18335;51.486;7.562;2022-08-03T00:11:11;100190.44;;;20.48;100.00
31761;BME280;18335;51.486;7.562;2022-08-03T00:16:04;100191.97;;;20.44;100.00
31761;BME280;18335;51.486;7.562;2022-08-03T00:18:31;100192.81;;;20.45;100.00
31761;BME280;18335;51.486;7.562;2022-08-03T00:20:58;100184.56;;;20.38;100.00
31761;BME280;18335;51.486;7.562;2022-08-03T00:23:26;100182.00;;;20.18;100.00
31761;BME280;18335;51.486;7.562;2022-08-03T00:25:53;100179.28;;;20.36;100.00
31761;BME280;18335;51.486;7.562;2022-08-03T00:28:20;100183.91;;;20.18;100.00
31761;BME280;18335;51.486;7.562;2022-08-03T00:30:47;100173.91;;;20.17;100.00
31761;BME280;18335;51.486;7.562;2022-08-03T00:33:13;100175.47;;;20.31;100.00
31761;BME280;18335;51.486;7.562;2022-08-03T00:35:40;100174.88;;;20.29;100.00
31761;BME280;18335;51.486;7.562;2022-08-03T00:38:07;100178.81;;;20.39;100.00
31761;BME280;18335;51.486;7.562;2022-08-03T00:40:36;100175.41;;;20.37;100.00
31761;BME280;18335;51.486;7.562;2022-08-03T00:43:05;100176.25;;;20.38;100.00
31761;BME280;18335;51.486;7.562;2022-08-03T00:45:34;100172.88;;;20.36;100.00
31761;BME280;18335;51.486;7.562;2022-08-03T00:48:01;100171.41;;;20.33;100.00
31761;BME280;18335;51.486;7.562;2022-08-03T00:50:31;100177.09;;;20.38;100.00
31761;BME280;18335;51.486;7.562;2022-08-03T00:53:00;100171.25;;;20.47;100.00
31761;BME280;18335;51.486;7.562;2022-08-03T00:55:27;100162.53;;;20.43;100.00
31761;BME280;18335;51.486;7.562;2022-08-03T00:57:56;100169.78;;;20.44;100.00
31761;BME280;18335;51.486;7.562;2022-08-03T01:00:26;100168.66;;;20.33;100.00
31761;BME280;18335;51.486;7.562;2022-08-03T01:02:53;100163.78;;;20.47;100.00
31761;BME280;18335;51.486;7.562;2022-08-03T01:05:20;100160.09;;;20.35;100.00
31761;BME280;18335;51.486;7.562;2022-08-03T01:07:59;100166.41;;;20.42;100.00
31761;BME280;18335;51.486;7.562;2022-08-03T01:10:33;100167.34;;;20.36;100.00
31761;BME280;18335;51.486;7.562;2022-08-03T01:13:14;100165.16;;;20.38;100.00
31761;BME280;18335;51.486;7.562;2022-08-03T01:18:33;100159.41;;;20.39;100.00
31761;BME280;18335;51.486;7.562;2022-08-03T01:21:06;100156.56;;;20.28;100.00
31761;BME280;18335;51.486;7.562;2022-08-03T01:23:48;100153.44;;;20.18;100.00
31761;BME280;18335;51.486;7.562;2022-08-03T01:29:51;100150.53;;;20.31;100.00
31761;BME280;18335;51.486;7.562;2022-08-03T01:32:25;100152.09;;;20.27;100.00
31761;BME280;18335;51.486;7.562;2022-08-03T01:34:56;100151.66;;;20.23;100.00
31761;BME280;18335;51.486;7.562;2022-08-03T01:37:37;100150.38;;;20.26;100.00
31761;BME280;18335;51.486;7.562;2022-08-03T01:40:07;100147.91;;;20.18;100.00
31761;BME280;18335;51.486;7.562;2022-08-03T01:42:35;100140.66;;;20.17;100.00
31761;BME280;18335;51.486;7.562;2022-08-03T01:45:06;100141.63;;;20.29;100.00
31761;BME280;18335;51.486;7.562;2022-08-03T01:47:34;100142.09;;;20.19;100.00
31761;BME280;18335;51.486;7.562;2022-08-03T01:50:03;100144.00;;;20.25;100.00
31761;BME280;18335;51.486;7.562;2022-08-03T01:52:31;100143.59;;;20.22;100.00
31761;BME280;18335;51.486;7.562;2022-08-03T01:55:00;100138.00;;;20.28;100.00
31761;BME280;18335;51.486;7.562;2022-08-03T01:57:29;100140.75;;;20.28;100.00
31761;BME280;18335;51.486;7.562;2022-08-03T01:59:58;100137.00;;;19.98;100.00
31761;BME280;18335;51.486;7.562;2022-08-03T02:02:29;100146.81;;;20.01;100.00
31761;BME280;18335;51.486;7.562;2022-08-03T02:04:57;100143.50;;;20.10;100.00
31761;BME280;18335;51.486;7.562;2022-08-03T02:07:26;100139.69;;;19.86;100.00
31761;BME280;18335;51.486;7.562;2022-08-03T02:09:55;100138.31;;;19.96;100.00
31761;BME280;18335;51.486;7.562;2022-08-03T02:12:24;100148.84;;;19.87;100.00
31761;BME280;18335;51.486;7.562;2022-08-03T02:14:53;100138.78;;;19.93;100.00
31761;BME280;18335;51.486;7.562;2022-08-03T02:17:22;100140.47;;;19.94;100.00
31761;BME280;18335;51.486;7.562;2022-08-03T02:19:52;100143.84;;;19.96;100.00
31761;BME280;18335;51.486;7.562;2022-08-03T02:22:21;100143.09;;;19.88;100.00
31761;BME280;18335;51.486;7.562;2022-08-03T02:24:48;100144.72;;;19.96;100.00
31761;BME280;18335;51.486;7.562;2022-08-03T02:27:19;100136.00;;;19.93;100.00
31761;BME280;18335;51.486;7.562;2022-08-03T02:29:51;100135.84;;;19.87;100.00
31761;BME280;18335;51.486;7.562;2022-08-03T02:32:20;100140.94;;;19.91;100.00
31761;BME280;18335;51.486;7.562;2022-08-03T02:34:52;100144.09;;;19.94;100.00
31761;BME280;18335;51.486;7.562;2022-08-03T02:37:25;100136.09;;;19.86;100.00
31761;BME280;18335;51.486;7.562;2022-08-03T02:39:56;100141.94;;;19.96;100.00
31761;BME280;18335;51.486;7.562;2022-08-03T02:42:25;100141.19;;;19.89;100.00
31761;BME280;18335;51.486;7.562;2022-08-03T02:44:55;100140.31;;;19.88;100.00
31761;BME280;18335;51.486;7.562;2022-08-03T02:47:25;100140.09;;;19.90;100.00
31761;BME280;18335;51.486;7.562;2022-08-03T02:49:56;100143.25;;;19.94;100.00
31761;BME280;18335;51.486;7.562;2022-08-03T02:52:26;100140.25;;;19.95;100.00
31761;BME280;18335;51.486;7.562;2022-08-03T02:54:55;100133.69;;;19.89;100.00
31761;BME280;18335;51.486;7.562;2022-08-03T02:57:24;100140.47;;;19.94;100.00
31761;BME280;18335;51.486;7.562;2022-08-03T02:59:52;100136.72;;;19.88;100.00
31761;BME280;18335;51.486;7.562;2022-08-03T03:02:20;100132.63;;;19.91;100.00
31761;BME280;18335;51.486;7.562;2022-08-03T03:04:49;100137.16;;;19.85;100.00
31761;BME280;18335;51.486;7.562;2022-08-03T03:07:19;100136.78;;;19.81;100.00
31761;BME280;18335;51.486;7.562;2022-08-03T03:09:46;100142.56;;;19.80;100.00
31761;BME280;18335;51.486;7.562;2022-08-03T03:12:13;100140.00;;;19.78;100.00
31761;BME280;18335;51.486;7.562;2022-08-03T03:14:41;100134.31;;;19.73;100.00
31761;BME280;18335;51.486;7.562;2022-08-03T03:17:09;100137.69;;;19.75;100.00
31761;BME280;18335;51.486;7.562;2022-08-03T03:19:38;100127.91;;;19.73;100.00
31761;BME280;18335;51.486;7.562;2022-08-03T03:22:06;100133.84;;;19.76;100.00
31761;BME280;18335;51.486;7.562;2022-08-03T03:24:35;100132.44;;;19.67;100.00
31761;BME280;18335;51.486;7.562;2022-08-03T03:27:02;100140.06;;;19.72;100.00
31761;BME280;18335;51.486;7.562;2022-08-03T03:29:31;100141.97;;;19.71;100.00
31761;BME280;18335;51.486;7.562;2022-08-03T03:31:58;100137.78;;;19.62;100.00
31761;BME280;18335;51.486;7.562;2022-08-03T03:34:28;100129.28;;;19.64;100.00
31761;BME280;18335;51.486;7.562;2022-08-03T03:36:56;100135.03;;;19.62;100.00
31761;BME280;18335;51.486;7.562;2022-08-03T03:39:22;100134.41;;;19.60;100.00
31761;BME280;18335;51.486;7.562;2022-08-03T03:41:51;100135.16;;;19.49;100.00
31761;BME280;18335;51.486;7.562;2022-08-03T03:44:17;100132.66;;;19.66;100.00
31761;BME280;18335;51.486;7.562;2022-08-03T03:46:44;100131.56;;;19.92;100.00
31761;BME280;18335;51.486;7.562;2022-08-03T03:49:11;100135.66;;;19.64;100.00
31761;BME280;18335;51.486;7.562;2022-08-03T03:51:38;100131.59;;;19.67;100.00
31761;BME280;18335;51.486;7.562;2022-08-03T03:54:05;100131.88;;;19.59;100.00
31761;BME280;18335;51.486;7.562;2022-08-03T03:56:32;100134.81;;;19.64;100.00
31761;BME280;18335;51.486;7.562;2022-08-03T03:59:00;100130.13;;;19.64;100.00
31761;BME280;18335;51.486;7.562;2022-08-03T04:01:27;100132.09;;;19.82;100.00
31761;BME280;18335;51.486;7.562;2022-08-03T04:03:54;100128.63;;;19.37;100.00
31761;BME280;18335;51.486;7.562;2022-08-03T04:06:20;100125.69;;;19.81;100.00
31761;BME280;18335;51.486;7.562;2022-08-03T04:09:07;100134.00;;;19.81;100.00
31761;BME280;18335;51.486;7.562;2022-08-03T04:11:53;100133.97;;;19.63;100.00
31761;BME280;18335;51.486;7.562;2022-08-03T04:14:24;100136.63;;;19.52;100.00
31761;BME280;18335;51.486;7.562;2022-08-03T04:16:55;100131.59;;;19.42;100.00
31761;BME280;18335;51.486;7.562;2022-08-03T04:19:26;100130.69;;;19.48;100.00
31761;BME280;18335;51.486;7.562;2022-08-03T04:21:56;100136.06;;;19.68;100.00
31761;BME280;18335;51.486;7.562;2022-08-03T04:24:28;100133.50;;;19.66;100.00
31761;BME280;18335;51.486;7.562;2022-08-03T04:26:56;100136.31;;;19.60;100.00
31761;BME280;18335;51.486;7.562;2022-08-03T04:29:27;100134.31;;;19.73;100.00
31761;BME280;18335;51.486;7.562;2022-08-03T04:31:58;100134.91;;;19.75;100.00
31761;BME280;18335;51.486;7.562;2022-08-03T04:34:25;100144.91;;;19.20;100.00
31761;BME280;18335;51.486;7.562;2022-08-03T04:36:57;100137.91;;;19.74;100.00
31761;BME280;18335;51.486;7.562;2022-08-03T04:39:26;100140.34;;;20.07;100.00
31761;BME280;18335;51.486;7.562;2022-08-03T04:41:55;100139.09;;;20.27;100.00
31761;BME280;18335;51.486;7.562;2022-08-03T04:44:26;100144.38;;;20.29;100.00
31761;BME280;18335;51.486;7.562;2022-08-03T04:46:55;100138.06;;;20.40;100.00
31761;BME280;18335;51.486;7.562;2022-08-03T04:49:22;100146.53;;;20.45;100.00
31761;BME280;18335;51.486;7.562;2022-08-03T04:51:49;100143.59;;;20.58;100.00
31761;BME280;18335;51.486;7.562;2022-08-03T04:54:16;100150.84;;;20.59;100.00
31761;BME280;18335;51.486;7.562;2022-08-03T04:56:43;100144.81;;;20.62;100.00
31761;BME280;18335;51.486;7.562;2022-08-03T04:59:10;100151.75;;;20.71;100.00
31761;BME280;18335;51.486;7.562;2022-08-03T05:01:38;100150.00;;;20.88;100.00
31761;BME280;18335;51.486;7.562;2022-08-03T05:04:06;100144.94;;;20.85;100.00
31761;BME280;18335;51.486;7.562;2022-08-03T05:06:33;100148.59;;;20.97;100.00
31761;BME280;18335;51.486;7.562;2022-08-03T05:09:00;100149.91;;;20.95;100.00
31761;BME280;18335;51.486;7.562;2022-08-03T05:11:26;100143.81;;;21.05;100.00
31761;BME280;18335;51.486;7.562;2022-08-03T05:13:53;100141.63;;;21.07;100.00
31761;BME280;18335;51.486;7.562;2022-08-03T05:16:20;100142.50;;;21.37;100.00
31761;BME280;18335;51.486;7.562;2022-08-03T05:18:48;100147.19;;;21.07;100.00
31761;BME280;18335;51.486;7.562;2022-08-03T05:21:14;100141.31;;;21.15;100.00
31761;BME280;18335;51.486;7.562;2022-08-03T05:23:41;100147.50;;;21.17;100.00
31761;BME280;18335;51.486;7.562;2022-08-03T05:26:08;100140.84;;;21.18;100.00
31761;BME280;18335;51.486;7.562;2022-08-03T05:28:37;100146.09;;;21.37;100.00
31761;BME280;18335;51.486;7.562;2022-08-03T05:31:04;100144.50;;;21.30;100.00
31761;BME280;18335;51.486;7.562;2022-08-03T05:33:31;100148.13;;;21.30;100.00
31761;BME280;18335;51.486;7.562;2022-08-03T05:35:59;100139.81;;;21.42;100.00
31761;BME280;18335;51.486;7.562;2022-08-03T05:38:25;100142.88;;;21.40;100.00
31761;BME280;18335;51.486;7.562;2022-08-03T05:40:52;100144.47;;;21.71;100.00
31761;BME280;18335;51.486;7.562;2022-08-03T05:43:19;100145.56;;;21.82;100.00
31761;BME280;18335;51.486;7.562;2022-08-03T05:45:47;100146.06;;;21.90;100.00
31761;BME280;18335;51.486;7.562;2022-08-03T05:48:13;100142.91;;;21.87;100.00
31761;BME280;18335;51.486;7.562;2022-08-03T05:50:40;100153.63;;;21.83;100.00
31761;BME280;18335;51.486;7.562;2022-08-03T05:53:08;100149.22;;;21.94;100.00
31761;BME280;18335;51.486;7.562;2022-08-03T05:55:35;100156.81;;;21.98;100.00
31761;BME280;18335;51.486;7.562;2022-08-03T05:58:02;100153.22;;;22.10;100.00
31761;BME280;18335;51.486;7.562;2022-08-03T06:00:28;100154.28;;;22.09;100.00
31761;BME280;18335;51.486;7.562;2022-08-03T06:02:55;100147.63;;;22.21;100.00
31761;BME280;18335;51.486;7.562;2022-08-03T06:05:22;100157.31;;;22.19;100.00
31761;BME280;18335;51.486;7.562;2022-08-03T06:07:51;100147.13;;;22.36;100.00
31761;BME280;18335;51.486;7.562;2022-08-03T06:10:20;100146.63;;;22.39;100.00
31761;BME280;18335;51.486;7.562;2022-08-03T06:12:46;100152.63;;;22.59;100.00
31761;BME280;18335;51.486;7.562;2022-08-03T06:15:15;100147.50;;;22.79;100.00
31761;BME280;18335;51.486;7.562;2022-08-03T06:17:43;100150.16;;;22.86;100.00
31761;BME280;18335;51.486;7.562;2022-08-03T06:20:11;100149.75;;;22.94;100.00
31761;BME280;18335;51.486;7.562;2022-08-03T06:22:37;100145.53;;;22.91;100.00
31761;BME280;18335;51.486;7.562;2022-08-03T06:25:05;100157.16;;;22.88;100.00
31761;BME280;18335;51.486;7.562;2022-08-03T06:27:33;100148.63;;;23.06;100.00
31761;BME280;18335;51.486;7.562;2022-08-03T06:30:01;100159.00;;;23.39;100.00
31761;BME280;18335;51.486;7.562;2022-08-03T06:32:27;100157.34;;;23.27;100.00
31761;BME280;18335;51.486;7.562;2022-08-03T06:34:54;100157.69;;;23.58;100.00
31761;BME280;18335;51.486;7.562;2022-08-03T06:37:21;100158.03;;;23.62;100.00
31761;BME280;18335;51.486;7.562;2022-08-03T06:39:47;100151.25;;;23.75;100.00
31761;BME280;18335;51.486;7.562;2022-08-03T06:42:14;100158.19;;;23.72;100.00
31761;BME280;18335;51.486;7.562;2022-08-03T06:44:42;100154.50;;;23.83;100.00
31761;BME280;18335;51.486;7.562;2022-08-03T06:47:09;100155.75;;;23.92;100.00
31761;BME280;18335;51.486;7.562;2022-08-03T06:49:35;100161.16;;;24.15;100.00
31761;BME280;18335;51.486;7.562;2022-08-03T06:52:02;100157.41;;;23.43;100.00
31761;BME280;18335;51.486;7.562;2022-08-03T06:54:29;100158.03;;;23.95;100.00
31761;BME280;18335;51.486;7.562;2022-08-03T06:56:56;100149.59;;;23.74;100.00
31761;BME280;18335;51.486;7.562;2022-08-03T06:59:23;100163.50;;;23.74;100.00
31761;BME280;18335;51.486;7.562;2022-08-03T07:01:51;100162.84;;;23.83;100.00
31761;BME280;18335;51.486;7.562;2022-08-03T07:04:17;100161.53;;;24.07;100.00
31761;BME280;18335;51.486;7.562;2022-08-03T07:06:44;100163.44;;;24.18;100.00
31761;BME280;18335;51.486;7.562;2022-08-03T07:09:11;100166.63;;;24.27;100.00
31761;BME280;18335;51.486;7.562;2022-08-03T07:11:37;100168.63;;;24.32;100.00
31761;BME280;18335;51.486;7.562;2022-08-03T07:14:04;100177.59;;;24.34;100.00
31761;BME280;18335;51.486;7.562;2022-08-03T07:16:31;100171.91;;;24.45;100.00
31761;BME280;18335;51.486;7.562;2022-08-03T07:18:59;100167.09;;;24.62;100.00
31761;BME280;18335;51.486;7.562;2022-08-03T07:21:26;100170.16;;;24.61;100.00
31761;BME280;18335;51.486;7.562;2022-08-03T07:23:53;100169.19;;;24.72;100.00
31761;BME280;18335;51.486;7.562;2022-08-03T07:26:19;100169.97;;;24.89;100.00
31761;BME280;18335;51.486;7.562;2022-08-03T07:28:46;100163.53;;;25.10;100.00
31761;BME280;18335;51.486;7.562;2022-08-03T07:31:13;100173.69;;;25.21;100.00
31761;BME280;18335;51.486;7.562;2022-08-03T07:33:40;100171.78;;;25.27;100.00
31761;BME280;18335;51.486;7.562;2022-08-03T07:36:08;100173.50;;;25.55;100.00
31761;BME280;18335;51.486;7.562;2022-08-03T07:38:35;100181.41;;;25.63;100.00
31761;BME280;18335;51.486;7.562;2022-08-03T07:41:02;100173.78;;;25.85;100.00
31761;BME280;18335;51.486;7.562;2022-08-03T07:43:29;100178.00;;;25.88;100.00
31761;BME280;18335;51.486;7.562;2022-08-03T07:45:56;100180.22;;;25.85;100.00
31761;BME280;18335;51.486;7.562;2022-08-03T07:48:22;100177.59;;;26.11;100.00
31761;BME280;18335;51.486;7.562;2022-08-03T07:50:49;100170.56;;;26.03;100.00
31761;BME280;18335;51.486;7.562;2022-08-03T07:53:17;100173.06;;;26.00;100.00
31761;BME280;18335;51.486;7.562;2022-08-03T07:55:44;100174.00;;;26.10;100.00
31761;BME280;18335;51.486;7.562;2022-08-03T07:58:11;100176.41;;;26.33;100.00
31761;BME280;18335;51.486;7.562;2022-08-03T08:00:40;100173.41;;;26.45;100.00
31761;BME280;18335;51.486;7.562;2022-08-03T08:03:09;100169.44;;;26.36;100.00
31761;BME280;18335;51.486;7.562;2022-08-03T08:05:36;100166.84;;;26.24;100.00
31761;BME280;18335;51.486;7.562;2022-08-03T08:08:03;100173.13;;;26.47;100.00
31761;BME280;18335;51.486;7.562;2022-08-03T08:10:31;100165.88;;;26.51;100.00
31761;BME280;18335;51.486;7.562;2022-08-03T08:12:58;100159.53;;;26.70;100.00
31761;BME280;18335;51.486;7.562;2022-08-03T08:15:25;100160.13;;;26.77;100.00
31761;BME280;18335;51.486;7.562;2022-08-03T08:17:53;100164.00;;;26.66;100.00
31761;BME280;18335;51.486;7.562;2022-08-03T08:20:22;100161.50;;;26.70;100.00
31761;BME280;18335;51.486;7.562;2022-08-03T08:22:49;100162.06;;;26.72;100.00
31761;BME280;18335;51.486;7.562;2022-08-03T08:25:16;100159.72;;;26.54;100.00
31761;BME280;18335;51.486;7.562;2022-08-03T08:27:45;100154.19;;;26.64;100.00
31761;BME280;18335;51.486;7.562;2022-08-03T08:30:13;100159.66;;;27.01;100.00
31761;BME280;18335;51.486;7.562;2022-08-03T08:32:41;100150.63;;;26.78;100.00
31761;BME280;18335;51.486;7.562;2022-08-03T08:35:09;100156.00;;;26.85;100.00
31761;BME280;18335;51.486;7.562;2022-08-03T08:37:36;100154.41;;;27.14;100.00
31761;BME280;18335;51.486;7.562;2022-08-03T08:40:04;100158.88;;;27.10;100.00
31761;BME280;18335;51.486;7.562;2022-08-03T08:42:31;100156.94;;;27.21;100.00
31761;BME280;18335;51.486;7.562;2022-08-03T08:45:00;100152.25;;;27.52;100.00
31761;BME280;18335;51.486;7.562;2022-08-03T08:47:30;100153.97;;;27.63;97.09
31761;BME280;18335;51.486;7.562;2022-08-03T08:49:58;100157.88;;;27.67;94.72
31761;BME280;18335;51.486;7.562;2022-08-03T08:52:27;100157.31;;;27.60;98.57
31761;BME280;18335;51.486;7.562;2022-08-03T08:54:57;100165.16;;;27.48;95.88
31761;BME280;18335;51.486;7.562;2022-08-03T08:57:28;100163.47;;;27.46;93.24
31761;BME280;18335;51.486;7.562;2022-08-03T08:59:55;100159.00;;;27.71;91.05
31761;BME280;18335;51.486;7.562;2022-08-03T09:02:24;100159.56;;;27.98;90.40
31761;BME280;18335;51.486;7.562;2022-08-03T09:04:51;100156.50;;;28.10;89.40
31761;BME280;18335;51.486;7.562;2022-08-03T09:07:18;100153.94;;;28.23;89.48
31761;BME280;18335;51.486;7.562;2022-08-03T09:09:45;100155.03;;;28.42;87.80
31761;BME280;18335;51.486;7.562;2022-08-03T09:12:12;100163.41;;;28.47;87.51
31761;BME280;18335;51.486;7.562;2022-08-03T09:14:38;100158.88;;;28.62;83.69
31761;BME280;18335;51.486;7.562;2022-08-03T09:17:05;100157.50;;;28.69;85.49
31761;BME280;18335;51.486;7.562;2022-08-03T09:19:35;100158.06;;;28.56;83.49
31761;BME280;18335;51.486;7.562;2022-08-03T09:22:09;100158.84;;;28.82;81.59
31761;BME280;18335;51.486;7.562;2022-08-03T09:24:38;100153.22;;;28.82;78.52
31761;BME280;18335;51.486;7.562;2022-08-03T09:27:19;100153.22;;;28.82;79.44
31761;BME280;18335;51.486;7.562;2022-08-03T09:29:46;100158.22;;;28.95;81.40
31761;BME280;18335;51.486;7.562;2022-08-03T09:32:14;100158.78;;;28.92;79.16
31761;BME280;18335;51.486;7.562;2022-08-03T09:34:42;100161.53;;;29.07;78.67
31761;BME280;18335;51.486;7.562;2022-08-03T09:37:12;100155.94;;;29.02;76.06
31761;BME280;18335;51.486;7.562;2022-08-03T09:39:40;100155.72;;;28.93;74.41
31761;BME280;18335;51.486;7.562;2022-08-03T09:42:09;100154.91;;;28.83;72.88
31761;BME280;18335;51.486;7.562;2022-08-03T09:44:37;100156.75;;;29.07;74.29
31761;BME280;18335;51.486;7.562;2022-08-03T09:47:07;100154.72;;;29.18;77.06
31761;BME280;18335;51.486;7.562;2022-08-03T09:49:34;100152.09;;;29.37;73.85
31761;BME280;18335;51.486;7.562;2022-08-03T09:52:14;100158.72;;;29.12;75.30
31761;BME280;18335;51.486;7.562;2022-08-03T09:54:43;100150.19;;;29.32;73.85
31761;BME280;18335;51.486;7.562;2022-08-03T09:57:19;100148.34;;;29.02;73.58
31761;BME280;18335;51.486;7.562;2022-08-03T09:59:47;100155.84;;;29.17;73.25
31761;BME280;18335;51.486;7.562;2022-08-03T10:02:21;100149.38;;;29.27;69.68
31761;BME280;18335;51.486;7.562;2022-08-03T10:04:49;100151.25;;;29.41;73.80
31761;BME280;18335;51.486;7.562;2022-08-03T10:07:19;100150.75;;;29.29;71.13
31761;BME280;18335;51.486;7.562;2022-08-03T10:09:54;100154.00;;;29.46;69.37
31761;BME280;18335;51.486;7.562;2022-08-03T10:12:21;100152.41;;;29.35;69.68
31761;BME280;18335;51.486;7.562;2022-08-03T10:14:48;100150.44;;;29.75;70.70
31761;BME280;18335;51.486;7.562;2022-08-03T10:17:16;100146.09;;;29.87;68.14
31761;BME280;18335;51.486;7.562;2022-08-03T10:19:43;100148.09;;;29.87;68.55
31761;BME280;18335;51.486;7.562;2022-08-03T10:22:12;100142.28;;;29.73;67.89
31761;BME280;18335;51.486;7.562;2022-08-03T10:24:49;100148.81;;;29.63;64.17
31761;BME280;18335;51.486;7.562;2022-08-03T10:27:18;100144.75;;;29.80;65.38
31761;BME280;18335;51.486;7.562;2022-08-03T10:29:51;100146.22;;;30.06;63.44
31761;BME280;18335;51.486;7.562;2022-08-03T10:32:21;100142.13;;;29.93;62.46
31761;BME280;18335;51.486;7.562;2022-08-03T10:34:53;100145.97;;;30.02;63.58
31761;BME280;18335;51.486;7.562;2022-08-03T10:37:28;100135.66;;;29.93;64.75
31761;BME280;18335;51.486;7.562;2022-08-03T10:39:59;100136.66;;;30.07;64.30
31761;BME280;18335;51.486;7.562;2022-08-03T10:42:27;100126.00;;;30.04;66.58
31761;BME280;18335;51.486;7.562;2022-08-03T10:45:03;100115.63;;;30.23;67.31
31761;BME280;18335;51.486;7.562;2022-08-03T10:47:30;100111.88;;;30.61;64.99
31761;BME280;18335;51.486;7.562;2022-08-03T10:49:59;100124.78;;;30.62;62.78
31761;BME280;18335;51.486;7.562;2022-08-03T10:52:26;100110.31;;;30.93;60.22
31761;BME280;18335;51.486;7.562;2022-08-03T10:54:53;100113.81;;;30.85;58.42
31761;BME280;18335;51.486;7.562;2022-08-03T10:57:49;100104.03;;;30.58;62.90
31761;BME280;18335;51.486;7.562;2022-08-03T11:00:18;100110.00;;;30.76;64.16
31761;BME280;18335;51.486;7.562;2022-08-03T11:03:06;100103.97;;;31.06;64.18
31761;BME280;18335;51.486;7.562;2022-08-03T11:05:35;100104.50;;;31.27;60.56
31761;BME280;18335;51.486;7.562;2022-08-03T11:08:25;100103.50;;;30.99;61.47
31761;BME280;18335;51.486;7.562;2022-08-03T11:10:54;100101.59;;;30.70;60.50
31761;BME280;18335;51.486;7.562;2022-08-03T11:13:23;100097.16;;;30.88;59.11
31761;BME280;18335;51.486;7.562;2022-08-03T11:15:54;100095.81;;;30.81;61.06
31761;BME280;18335;51.486;7.562;2022-08-03T11:18:21;100097.81;;;30.80;61.25
31761;BME280;18335;51.486;7.562;2022-08-03T11:20:50;100083.69;;;31.04;60.58
31761;BME280;18335;51.486;7.562;2022-08-03T11:23:19;100080.03;;;31.22;59.44
31761;BME280;18335;51.486;7.562;2022-08-03T11:26:11;100093.22;;;31.27;59.62
31761;BME280;18335;51.486;7.562;2022-08-03T11:28:40;100092.00;;;31.33;57.25
31761;BME280;18335;51.486;7.562;2022-08-03T11:34:23;100091.91;;;31.19;56.82
31761;BME280;18335;51.486;7.562;2022-08-03T11:37:22;100092.66;;;31.24;59.98
31761;BME280;18335;51.486;7.562;2022-08-03T11:39:52;100099.91;;;31.68;58.08
31761;BME280;18335;51.486;7.562;2022-08-03T11:42:40;100098.91;;;31.77;57.48
31761;BME280;18335;51.486;7.562;2022-08-03T11:45:11;100098.16;;;32.04;55.75
31761;BME280;18335;51.486;7.562;2022-08-03T11:47:40;100096.97;;;31.59;57.07
31761;BME280;18335;51.486;7.562;2022-08-03T11:50:09;100095.19;;;31.26;56.86
31761;BME280;18335;51.486;7.562;2022-08-03T11:52:40;100101.22;;;31.19;58.94
31761;BME280;18335;51.486;7.562;2022-08-03T11:55:12;100099.75;;;31.41;59.32
31761;BME280;18335;51.486;7.562;2022-08-03T11:57:39;100095.88;;;31.55;57.18
31761;BME280;18335;51.486;7.562;2022-08-03T12:00:27;100106.47;;;31.63;55.97
31761;BME280;18335;51.486;7.562;2022-08-03T12:02:58;100098.50;;;31.33;56.47
31761;BME280;18335;51.486;7.562;2022-08-03T12:05:40;100090.03;;;31.33;56.23
31761;BME280;18335;51.486;7.562;2022-08-03T12:08:07;100097.09;;;31.68;56.32
31761;BME280;18335;51.486;7.562;2022-08-03T12:10:36;100099.25;;;31.39;56.45
31761;BME280;18335;51.486;7.562;2022-08-03T12:13:05;100104.66;;;31.86;54.23
31761;BME280;18335;51.486;7.562;2022-08-03T12:15:35;100101.63;;;31.83;55.20
31761;BME280;18335;51.486;7.562;2022-08-03T12:18:11;100096.00;;;31.96;53.94
31761;BME280;18335;51.486;7.562;2022-08-03T12:20:39;100096.84;;;31.97;52.32
31761;BME280;18335;51.486;7.562;2022-08-03T12:23:06;100090.84;;;32.03;51.79
31761;BME280;18335;51.486;7.562;2022-08-03T12:25:34;100089.72;;;32.45;54.51
31761;BME280;18335;51.486;7.562;2022-08-03T12:28:07;100096.41;;;31.57;50.83
31761;BME280;18335;51.486;7.562;2022-08-03T12:30:35;100105.88;;;31.99;51.54
31761;BME280;18335;51.486;7.562;2022-08-03T12:33:18;100087.25;;;31.98;54.19
31761;BME280;18335;51.486;7.562;2022-08-03T12:35:49;100093.19;;;32.28;52.90
31761;BME280;18335;51.486;7.562;2022-08-03T12:38:21;100092.53;;;32.18;52.03
31761;BME280;18335;51.486;7.562;2022-08-03T12:40:58;100092.34;;;32.28;53.14
31761;BME280;18335;51.486;7.562;2022-08-03T12:43:25;100092.84;;;32.30;57.79
31761;BME280;18335;51.486;7.562;2022-08-03T12:46:08;100083.97;;;32.50;54.54
31761;BME280;18335;51.486;7.562;2022-08-03T12:48:34;100087.72;;;32.86;53.80
31761;BME280;18335;51.486;7.562;2022-08-03T12:51:07;100084.75;;;33.19;53.40
31761;BME280;18335;51.486;7.562;2022-08-03T12:53:35;100079.09;;;33.19;52.84
31761;BME280;18335;51.486;7.562;2022-08-03T12:56:02;100088.16;;;32.94;48.89
31761;BME280;18335;51.486;7.562;2022-08-03T12:58:30;100087.84;;;32.81;49.16
31761;BME280;18335;51.486;7.562;2022-08-03T13:00:58;100092.75;;;32.90;54.53
31761;BME280;18335;51.486;7.562;2022-08-03T13:03:26;100088.78;;;32.91;49.75
31761;BME280;18335;51.486;7.562;2022-08-03T13:05:53;100082.53;;;33.52;48.82